Terminal Aerodrome Forecast
Issued by NWS Grand Junction, CO

Home | Current Version | Previous Version | Text Only | Print | Product List | Glossary On
Versions: 1 2 3 4 5 6 7 8 9 10 11 12 13 14 15 16 17 18 19 20 21 22 23 24 25 26 27 28 29 30 31 32 33 34 35 36 37 38 39 40 41 42 43
000
FTUS45 KGJT 301741 CCA
TAFGJT
TAF COR
KGJT 301741Z 3018/0118 32007KT P6SM BKN090
     FM302100 29009KT P6SM BKN100
     FM302300 18007KT P6SM BKN120
     FM010000 03008G15KT P6SM SCT120
     FM011200 10007KT P6SM BKN250=

USA.gov is the U.S. government's official web portal to all federal, state and local government web resources and services.